createdAt,value
2018-12-11T00:02:13.223Z,98.56
2018-12-11T00:04:41.488Z,98.47
2018-12-11T00:07:09.758Z,98.17
2018-12-11T00:09:38.030Z,96.41
2018-12-11T00:12:06.290Z,96.47
2018-12-11T00:14:34.610Z,95.00
2018-12-11T00:17:02.988Z,94.73
2018-12-11T00:19:31.261Z,93.23
2018-12-11T00:21:59.517Z,93.00
2018-12-11T00:24:27.772Z,92.17
2018-12-11T00:26:56.047Z,93.27
2018-12-11T00:29:24.312Z,92.33
2018-12-11T00:31:52.570Z,93.11
2018-12-11T00:34:20.837Z,91.79
2018-12-11T00:36:49.076Z,92.58
2018-12-11T00:39:17.333Z,90.59
2018-12-11T00:41:45.614Z,90.46
2018-12-11T00:44:13.863Z,91.36
2018-12-11T00:46:42.116Z,90.06
2018-12-11T00:49:10.390Z,90.49
2018-12-11T00:51:38.708Z,90.97
2018-12-11T00:54:06.967Z,90.98
2018-12-11T00:56:35.240Z,90.22
2018-12-11T00:59:03.567Z,89.60
2018-12-11T01:01:31.906Z,88.50
2018-12-11T01:04:00.205Z,89.08
2018-12-11T01:06:28.547Z,89.86
2018-12-11T01:08:56.931Z,89.16
2018-12-11T01:11:25.202Z,88.92
2018-12-11T01:13:53.596Z,88.86
2018-12-11T01:16:21.920Z,89.05
2018-12-11T01:18:50.278Z,90.09
2018-12-11T01:21:18.689Z,88.80
2018-12-11T01:23:47.124Z,89.56
2018-12-11T01:26:15.429Z,89.47
2018-12-11T01:28:43.727Z,90.18
2018-12-11T01:31:12.077Z,90.33
2018-12-11T01:33:40.339Z,89.63
2018-12-11T01:36:08.621Z,89.59
2018-12-11T01:38:36.939Z,89.53
2018-12-11T01:41:05.296Z,89.97
2018-12-11T01:43:33.668Z,89.47
2018-12-11T01:46:01.984Z,89.60
2018-12-11T01:48:30.318Z,88.73
2018-12-11T01:50:58.633Z,88.79
2018-12-11T01:53:26.945Z,89.39
2018-12-11T01:55:55.226Z,89.69
2018-12-11T01:58:23.836Z,89.76
2018-12-11T02:00:52.158Z,89.57
2018-12-11T02:03:20.479Z,89.65
2018-12-11T02:05:48.768Z,90.51
2018-12-11T02:08:17.089Z,90.75
2018-12-11T02:10:45.396Z,92.40
2018-12-11T02:13:13.700Z,95.59
2018-12-11T02:15:42.024Z,98.14
2018-12-11T02:18:10.359Z,100.00
2018-12-11T02:20:38.648Z,100.00
2018-12-11T02:23:06.977Z,100.00
2018-12-11T02:25:35.281Z,100.00
2018-12-11T02:28:03.598Z,100.00
2018-12-11T02:30:31.980Z,100.00
2018-12-11T02:33:00.389Z,100.00
2018-12-11T02:35:28.788Z,99.36
2018-12-11T02:37:57.079Z,99.64
2018-12-11T02:40:25.411Z,98.49
2018-12-11T02:42:53.705Z,97.57
2018-12-11T02:45:22.034Z,97.71
2018-12-11T02:47:50.330Z,97.10
2018-12-11T02:50:18.628Z,96.79
2018-12-11T02:52:46.882Z,96.76
2018-12-11T02:55:15.121Z,96.25
2018-12-11T02:57:43.368Z,95.31
2018-12-11T03:00:11.692Z,95.70
2018-12-11T03:02:39.998Z,95.25
2018-12-11T03:05:08.354Z,94.96
2018-12-11T03:07:36.615Z,94.57
2018-12-11T03:10:06.285Z,94.13
2018-12-11T03:12:34.537Z,93.05
2018-12-11T03:15:02.914Z,93.30
2018-12-11T03:17:31.166Z,92.87
2018-12-11T03:19:59.406Z,93.50
2018-12-11T03:22:27.662Z,92.84
2018-12-11T03:24:55.933Z,92.38
2018-12-11T03:27:24.190Z,91.81
2018-12-11T03:29:52.433Z,91.43
2018-12-11T03:32:20.680Z,92.67
2018-12-11T03:34:48.946Z,91.02
2018-12-11T03:37:17.197Z,91.49
2018-12-11T03:39:45.433Z,92.10
2018-12-11T03:42:13.698Z,92.13
2018-12-11T03:44:41.955Z,91.21
2018-12-11T03:47:10.202Z,91.34
2018-12-11T03:49:38.570Z,91.33
2018-12-11T03:52:06.816Z,90.74
2018-12-11T03:54:35.065Z,90.62
2018-12-11T03:57:03.426Z,90.26
2018-12-11T03:59:31.684Z,90.64
2018-12-11T04:01:59.949Z,90.67
2018-12-11T04:04:28.286Z,91.24
2018-12-11T04:06:56.633Z,91.01
2018-12-11T04:09:24.921Z,90.92
2018-12-11T04:11:53.906Z,91.27
2018-12-11T04:14:22.611Z,91.77
2018-12-11T04:16:50.870Z,91.35
2018-12-11T04:19:19.119Z,92.09
2018-12-11T04:21:47.381Z,92.15
2018-12-11T04:24:15.725Z,91.67
2018-12-11T04:26:43.963Z,91.02
2018-12-11T04:29:12.224Z,90.55
2018-12-11T04:31:40.467Z,90.63
2018-12-11T04:34:08.704Z,91.03
2018-12-11T04:36:36.988Z,90.98
2018-12-11T04:39:06.700Z,90.82
2018-12-11T04:41:34.940Z,91.21
2018-12-11T04:44:03.260Z,90.82
2018-12-11T04:46:31.517Z,91.13
2018-12-11T04:48:59.765Z,92.12
2018-12-11T04:51:28.010Z,92.37
2018-12-11T04:53:56.335Z,92.36
2018-12-11T04:56:24.628Z,91.99
2018-12-11T04:58:52.880Z,92.20
2018-12-11T05:01:21.133Z,91.69
2018-12-11T05:03:49.377Z,92.13
2018-12-11T05:06:17.630Z,91.71
2018-12-11T05:08:45.877Z,91.74
2018-12-11T05:11:14.174Z,92.06
2018-12-11T05:13:42.440Z,91.32
2018-12-11T05:16:10.687Z,91.73
2018-12-11T05:18:38.964Z,91.96
2018-12-11T05:21:07.213Z,91.05
2018-12-11T05:23:35.464Z,91.44
2018-12-11T05:26:03.761Z,90.35
2018-12-11T05:28:32.027Z,90.83
2018-12-11T05:31:00.264Z,90.40
2018-12-11T05:33:28.568Z,91.55
2018-12-11T05:35:56.816Z,90.92
2018-12-11T05:38:25.059Z,91.37
2018-12-11T05:40:53.368Z,91.09
2018-12-11T05:43:21.632Z,91.20
2018-12-11T05:45:49.878Z,91.34
2018-12-11T05:48:18.123Z,91.57
2018-12-11T05:50:46.388Z,91.81
2018-12-11T05:53:14.628Z,91.96
2018-12-11T05:55:42.867Z,91.81
2018-12-11T05:58:11.129Z,91.25
2018-12-11T06:00:39.369Z,91.55
2018-12-11T06:03:07.648Z,91.05
2018-12-11T06:05:35.943Z,90.57
2018-12-11T06:08:04.326Z,90.09
2018-12-11T06:10:32.584Z,89.16
2018-12-11T06:13:00.832Z,88.83
2018-12-11T06:15:29.145Z,89.30
2018-12-11T06:17:57.383Z,89.44
2018-12-11T06:20:25.640Z,89.05
2018-12-11T06:22:53.888Z,88.04
2018-12-11T06:25:22.129Z,88.18
2018-12-11T06:27:50.396Z,88.34
2018-12-11T06:30:18.644Z,88.16
2018-12-11T06:32:46.883Z,88.42
2018-12-11T06:35:15.193Z,88.66
2018-12-11T06:37:43.500Z,88.63
2018-12-11T06:40:11.756Z,88.93
2018-12-11T06:42:40.104Z,89.04
2018-12-11T06:45:08.472Z,89.51
2018-12-11T06:47:36.717Z,88.82
2018-12-11T06:50:07.146Z,89.79
2018-12-11T06:52:35.404Z,89.48
2018-12-11T06:55:03.708Z,89.97
2018-12-11T06:57:31.948Z,89.76
2018-12-11T07:00:00.210Z,89.62
2018-12-11T07:02:28.450Z,90.07
2018-12-11T07:04:56.692Z,89.97
2018-12-11T07:07:24.949Z,90.24
2018-12-11T07:09:53.192Z,89.31
2018-12-11T07:12:21.464Z,89.49
2018-12-11T07:14:49.705Z,89.84
2018-12-11T07:17:17.947Z,89.79
2018-12-11T07:19:46.208Z,90.44
2018-12-11T07:22:14.456Z,90.17
2018-12-11T07:24:42.702Z,90.46
2018-12-11T07:27:10.960Z,91.01
2018-12-11T07:29:39.204Z,90.63
2018-12-11T07:32:07.448Z,90.74
2018-12-11T07:34:35.706Z,90.19
2018-12-11T07:37:03.944Z,90.76
2018-12-11T07:39:32.190Z,89.93
2018-12-11T07:42:00.463Z,89.25
2018-12-11T07:44:28.700Z,89.46
2018-12-11T07:46:56.948Z,89.11
2018-12-11T07:49:25.196Z,89.79
2018-12-11T07:51:53.436Z,90.49
2018-12-11T07:54:21.688Z,91.68
2018-12-11T07:56:49.930Z,92.27
2018-12-11T07:59:18.239Z,92.90
2018-12-11T08:01:46.500Z,94.41
2018-12-11T08:04:14.753Z,96.82
2018-12-11T08:06:43.010Z,98.15
2018-12-11T08:09:11.290Z,99.17
2018-12-11T08:11:39.609Z,100.00
2018-12-11T08:14:07.867Z,100.00
2018-12-11T08:16:36.185Z,100.00
2018-12-11T08:19:04.589Z,100.00
2018-12-11T08:21:32.824Z,100.00
2018-12-11T08:24:01.097Z,100.00
2018-12-11T08:26:29.333Z,100.00
2018-12-11T08:28:57.576Z,100.00
2018-12-11T08:31:25.841Z,100.00
2018-12-11T08:33:54.108Z,100.00
2018-12-11T08:36:22.363Z,100.00
2018-12-11T08:38:51.021Z,100.00
2018-12-11T08:41:19.288Z,100.00
2018-12-11T08:43:47.628Z,100.00
2018-12-11T08:46:15.868Z,100.00
2018-12-11T08:48:44.116Z,100.00
2018-12-11T08:51:12.441Z,100.00
2018-12-11T08:53:40.804Z,100.00
2018-12-11T08:56:09.142Z,100.00
2018-12-11T08:58:37.461Z,100.00
2018-12-11T09:01:05.769Z,100.00
2018-12-11T09:03:34.028Z,100.00
2018-12-11T09:06:02.283Z,98.83
2018-12-11T09:08:30.516Z,98.09
2018-12-11T09:10:58.773Z,98.85
2018-12-11T09:13:27.020Z,97.99
2018-12-11T09:15:55.262Z,97.28
2018-12-11T09:18:23.521Z,97.26
2018-12-11T09:20:51.756Z,98.09
2018-12-11T09:23:20.026Z,97.52
2018-12-11T09:25:48.381Z,97.78
2018-12-11T09:28:16.626Z,97.83
2018-12-11T09:30:44.860Z,96.71
2018-12-11T09:33:13.136Z,96.41
2018-12-11T09:35:41.380Z,95.40
2018-12-11T09:38:09.633Z,94.99
2018-12-11T09:40:37.900Z,96.29
2018-12-11T09:43:06.139Z,95.84
2018-12-11T09:45:34.396Z,96.70
2018-12-11T09:48:02.660Z,96.59
2018-12-11T09:50:30.904Z,98.00
2018-12-11T09:52:59.149Z,96.82
2018-12-11T09:55:27.401Z,96.30
2018-12-11T09:57:55.701Z,97.01
2018-12-11T10:00:27.281Z,96.28
2018-12-11T10:02:54.216Z,96.17
2018-12-11T10:05:22.451Z,96.50
2018-12-11T10:07:50.702Z,97.30
2018-12-11T10:10:18.971Z,96.61
2018-12-11T10:12:47.300Z,96.89
2018-12-11T10:15:15.541Z,97.20
2018-12-11T10:17:43.805Z,98.24
2018-12-11T10:20:12.852Z,99.44
2018-12-11T10:22:41.112Z,100.00
2018-12-11T10:25:09.472Z,99.29
2018-12-11T10:27:37.733Z,98.57
2018-12-11T10:30:09.561Z,100.00
2018-12-11T10:32:37.800Z,99.72
2018-12-11T10:35:07.308Z,98.89
2018-12-11T10:37:35.575Z,98.53
2018-12-11T10:40:05.293Z,96.70
2018-12-11T10:42:33.601Z,96.93
2018-12-11T10:45:01.851Z,95.41
2018-12-11T10:47:30.096Z,96.12
2018-12-11T10:49:58.343Z,94.91
2018-12-11T10:52:26.603Z,95.14
2018-12-11T10:54:54.840Z,93.36
2018-12-11T10:57:23.088Z,92.20
2018-12-11T10:59:51.373Z,92.96
2018-12-11T11:02:23.525Z,93.18
2018-12-11T11:04:51.799Z,93.28
2018-12-11T11:07:20.041Z,95.53
2018-12-11T11:09:48.318Z,97.67
2018-12-11T11:12:16.639Z,99.92
2018-12-11T11:14:44.885Z,100.00
2018-12-11T11:17:13.244Z,100.00
2018-12-11T11:19:41.497Z,100.00
2018-12-11T11:22:09.738Z,100.00
2018-12-11T11:24:38.002Z,100.00
2018-12-11T11:27:06.256Z,100.00
2018-12-11T11:29:34.512Z,100.00
2018-12-11T11:32:02.761Z,100.00
2018-12-11T11:34:41.680Z,100.00
2018-12-11T11:37:09.938Z,100.00
2018-12-11T11:39:38.176Z,99.19
2018-12-11T11:42:06.445Z,98.62
2018-12-11T11:44:34.740Z,98.85
2018-12-11T11:47:02.972Z,98.68
2018-12-11T11:49:31.294Z,98.30
2018-12-11T11:51:59.602Z,100.00
2018-12-11T11:54:27.847Z,100.00
2018-12-11T11:56:56.165Z,100.00
2018-12-11T11:59:24.431Z,100.00
2018-12-11T12:01:52.761Z,100.00
2018-12-11T12:04:21.020Z,100.00
2018-12-11T12:06:49.324Z,100.00
2018-12-11T12:09:17.572Z,100.00
2018-12-11T12:11:45.833Z,99.00
2018-12-11T12:14:14.080Z,99.14
2018-12-11T12:16:42.341Z,97.65
2018-12-11T12:19:10.597Z,96.11
2018-12-11T12:21:38.829Z,94.54
2018-12-11T12:24:07.093Z,96.87
2018-12-11T12:26:35.333Z,96.14
2018-12-11T12:29:03.566Z,95.18
2018-12-11T12:31:32.081Z,92.89
2018-12-11T12:34:00.325Z,91.56
2018-12-11T12:36:28.668Z,92.26
2018-12-11T12:38:56.934Z,93.14
2018-12-11T12:41:25.201Z,91.35
2018-12-11T12:43:53.445Z,93.04
2018-12-11T12:46:21.690Z,92.65
2018-12-11T12:48:49.944Z,92.95
2018-12-11T12:51:18.184Z,95.81
2018-12-11T12:53:46.457Z,98.90
2018-12-11T12:56:14.793Z,99.16
2018-12-11T12:58:43.049Z,100.00
2018-12-11T13:01:11.313Z,100.00
2018-12-11T13:03:39.833Z,100.00
2018-12-11T13:06:08.087Z,98.84
2018-12-11T13:08:36.345Z,99.75
2018-12-11T13:11:04.600Z,98.49
2018-12-11T13:13:32.844Z,100.00
2018-12-11T13:16:01.101Z,100.00
2018-12-11T13:18:29.456Z,99.50
2018-12-11T13:20:57.705Z,100.00
2018-12-11T13:23:25.943Z,98.84
2018-12-11T13:25:54.219Z,99.34
2018-12-11T13:28:22.821Z,98.78
2018-12-11T13:30:51.231Z,99.21
2018-12-11T13:33:19.482Z,100.00
2018-12-11T13:35:47.821Z,100.00
2018-12-11T13:38:16.093Z,100.00
2018-12-11T13:40:44.596Z,100.00
2018-12-11T13:43:12.837Z,100.00
2018-12-11T13:45:41.105Z,100.00
2018-12-11T13:48:09.486Z,100.00
2018-12-11T13:50:37.761Z,100.00
2018-12-11T13:53:06.147Z,100.00
2018-12-11T13:55:34.389Z,100.00
2018-12-11T13:58:02.628Z,95.75
2018-12-11T14:00:30.944Z,93.57
2018-12-11T14:02:59.204Z,90.59
2018-12-11T14:05:27.519Z,89.35
2018-12-11T14:07:55.784Z,88.52
2018-12-11T14:10:24.036Z,90.81
2018-12-11T14:12:52.266Z,91.97
2018-12-11T14:15:21.076Z,92.84
2018-12-11T14:17:49.328Z,93.14
2018-12-11T14:20:17.579Z,94.17
2018-12-11T14:22:45.818Z,95.14
2018-12-11T14:27:56.917Z,96.20
2018-12-11T14:30:25.253Z,95.70
2018-12-11T14:32:53.496Z,95.46
2018-12-11T14:35:21.796Z,95.91
2018-12-11T14:37:50.065Z,96.00
2018-12-11T14:40:18.315Z,97.92
2018-12-11T14:42:46.565Z,97.22
2018-12-11T14:45:14.832Z,99.91
2018-12-11T14:47:43.119Z,100.00
2018-12-11T14:50:11.373Z,100.00
2018-12-11T14:52:39.654Z,100.00
2018-12-11T14:55:08.108Z,98.78
2018-12-11T14:57:36.390Z,99.03
2018-12-11T15:00:06.411Z,98.94
2018-12-11T15:02:35.054Z,99.13
2018-12-11T15:05:03.420Z,100.00
2018-12-11T15:07:31.934Z,99.26
2018-12-11T15:10:00.209Z,98.23
2018-12-11T15:12:28.475Z,99.09
2018-12-11T15:14:56.729Z,99.87
2018-12-11T15:17:25.009Z,100.00
2018-12-11T15:19:53.260Z,100.00
2018-12-11T15:22:21.555Z,100.00
2018-12-11T15:24:49.887Z,100.00
2018-12-11T15:27:18.158Z,100.00
2018-12-11T15:29:46.402Z,100.00
2018-12-11T15:32:14.681Z,100.00
2018-12-11T15:34:42.936Z,100.00
2018-12-11T15:37:11.201Z,100.00
2018-12-11T15:39:39.481Z,100.00
2018-12-11T15:42:07.744Z,100.00
2018-12-11T15:44:36.017Z,100.00
2018-12-11T15:47:04.335Z,100.00
2018-12-11T15:49:32.617Z,100.00
2018-12-11T15:52:00.926Z,100.00
2018-12-11T15:54:29.202Z,100.00
2018-12-11T15:56:57.820Z,100.00
2018-12-11T15:59:26.082Z,100.00
2018-12-11T16:01:54.377Z,100.00
2018-12-11T16:04:22.641Z,100.00
2018-12-11T16:06:50.917Z,100.00
2018-12-11T16:12:08.711Z,100.00
2018-12-11T16:14:36.958Z,100.00
2018-12-11T16:17:05.262Z,100.00
2018-12-11T16:19:33.597Z,100.00
2018-12-11T16:22:01.917Z,100.00
2018-12-11T16:24:30.213Z,100.00
2018-12-11T16:26:58.485Z,100.00
2018-12-11T16:29:26.774Z,100.00
2018-12-11T16:31:55.013Z,100.00
2018-12-11T16:34:23.272Z,100.00
2018-12-11T16:36:51.579Z,100.00
2018-12-11T16:39:19.822Z,100.00
2018-12-11T16:41:48.099Z,100.00
2018-12-11T16:44:16.358Z,100.00
2018-12-11T16:46:44.603Z,100.00
2018-12-11T16:49:12.915Z,100.00
2018-12-11T16:51:41.168Z,100.00
2018-12-11T16:54:09.423Z,100.00
2018-12-11T16:56:37.684Z,100.00
2018-12-11T16:59:06.036Z,100.00
2018-12-11T17:01:34.289Z,100.00
2018-12-11T17:04:02.537Z,100.00
2018-12-11T17:06:30.802Z,100.00
2018-12-11T17:08:59.049Z,100.00
2018-12-11T17:11:27.296Z,100.00
2018-12-11T17:13:55.560Z,100.00
2018-12-11T17:16:23.840Z,100.00
2018-12-11T17:18:52.101Z,100.00
2018-12-11T17:21:20.344Z,100.00
2018-12-11T17:23:48.618Z,100.00
2018-12-11T17:26:16.875Z,100.00
2018-12-11T17:28:45.143Z,100.00
2018-12-11T17:31:13.392Z,100.00
2018-12-11T17:33:41.681Z,100.00
2018-12-11T17:36:09.933Z,100.00
2018-12-11T17:38:38.201Z,100.00
2018-12-11T17:41:06.450Z,100.00
2018-12-11T17:43:34.700Z,100.00
2018-12-11T17:46:02.959Z,100.00
2018-12-11T17:48:31.268Z,100.00
2018-12-11T17:50:59.794Z,100.00
2018-12-11T17:53:28.416Z,100.00
2018-12-11T17:55:56.685Z,100.00
2018-12-11T17:58:24.972Z,100.00
2018-12-11T18:00:53.354Z,100.00
2018-12-11T18:03:21.666Z,100.00
2018-12-11T18:05:49.909Z,100.00
2018-12-11T18:08:18.190Z,100.00
2018-12-11T18:10:46.462Z,100.00
2018-12-11T18:13:14.756Z,100.00
2018-12-11T18:15:43.015Z,100.00
2018-12-11T18:18:11.304Z,100.00
2018-12-11T18:20:39.646Z,100.00
2018-12-11T18:23:08.127Z,100.00
2018-12-11T18:25:36.455Z,100.00
2018-12-11T18:28:04.901Z,100.00
2018-12-11T18:30:33.423Z,100.00
2018-12-11T18:33:01.916Z,100.00
2018-12-11T18:35:30.765Z,100.00
2018-12-11T18:37:59.624Z,100.00
2018-12-11T18:40:28.656Z,100.00
2018-12-11T18:42:57.777Z,100.00
2018-12-11T18:45:27.007Z,100.00
2018-12-11T18:47:56.095Z,100.00
2018-12-11T18:50:25.281Z,100.00
2018-12-11T18:52:54.488Z,100.00
2018-12-11T18:55:23.671Z,100.00
2018-12-11T18:57:52.854Z,100.00
2018-12-11T19:00:22.199Z,100.00
2018-12-11T19:02:51.359Z,100.00
2018-12-11T19:05:20.566Z,100.00
2018-12-11T19:07:49.842Z,100.00
2018-12-11T19:10:19.110Z,100.00
2018-12-11T19:12:48.312Z,100.00
2018-12-11T19:15:17.788Z,100.00
2018-12-11T19:17:46.976Z,100.00
2018-12-11T19:20:16.604Z,100.00
2018-12-11T19:22:45.939Z,100.00
2018-12-11T19:25:18.126Z,100.00
2018-12-11T19:27:48.078Z,100.00
2018-12-11T19:30:17.578Z,100.00
2018-12-11T19:32:46.844Z,100.00
2018-12-11T19:35:16.087Z,100.00
2018-12-11T19:37:45.430Z,100.00
2018-12-11T19:40:14.708Z,100.00
2018-12-11T19:42:43.948Z,100.00
2018-12-11T19:45:13.587Z,100.00
2018-12-11T19:47:42.918Z,100.00
2018-12-11T19:50:12.219Z,100.00
2018-12-11T19:52:41.526Z,100.00
2018-12-11T19:55:10.908Z,100.00
2018-12-11T19:57:40.171Z,100.00
2018-12-11T20:00:10.397Z,100.00
2018-12-11T20:02:39.666Z,100.00
2018-12-11T20:05:09.007Z,100.00
2018-12-11T20:07:38.584Z,100.00
2018-12-11T20:10:13.774Z,100.00
2018-12-11T20:12:43.261Z,100.00
2018-12-11T20:15:12.545Z,100.00
2018-12-11T20:17:41.787Z,100.00
2018-12-11T20:20:30.465Z,100.00
2018-12-11T20:22:59.746Z,100.00
2018-12-11T20:25:29.016Z,100.00
2018-12-11T20:27:58.432Z,100.00
2018-12-11T20:30:27.770Z,100.00
2018-12-11T20:32:56.992Z,100.00
2018-12-11T20:35:26.313Z,100.00
2018-12-11T20:37:55.771Z,100.00
2018-12-11T20:40:25.489Z,100.00
2018-12-11T20:42:54.931Z,100.00
2018-12-11T20:45:24.285Z,100.00
2018-12-11T20:47:53.515Z,100.00
2018-12-11T20:50:22.794Z,100.00
2018-12-11T20:52:52.171Z,100.00
2018-12-11T20:55:21.399Z,100.00
2018-12-11T20:57:50.680Z,100.00
2018-12-11T21:00:20.083Z,100.00
2018-12-11T21:02:49.361Z,100.00
2018-12-11T21:05:18.630Z,100.00
2018-12-11T21:07:48.182Z,100.00
2018-12-11T21:10:17.419Z,100.00
2018-12-11T21:12:46.733Z,100.00
2018-12-11T21:15:16.119Z,100.00
2018-12-11T21:17:45.415Z,100.00
2018-12-11T21:20:14.672Z,100.00
2018-12-11T21:22:44.031Z,100.00
2018-12-11T21:25:13.329Z,100.00
2018-12-11T21:27:42.578Z,100.00
2018-12-11T21:30:11.981Z,100.00
2018-12-11T21:32:41.229Z,100.00
2018-12-11T21:35:10.503Z,100.00
2018-12-11T21:37:39.813Z,100.00
2018-12-11T21:40:09.096Z,100.00
2018-12-11T21:42:38.295Z,100.00
2018-12-11T21:45:07.715Z,100.00
2018-12-11T21:47:36.901Z,100.00
2018-12-11T21:50:07.411Z,100.00
2018-12-11T21:52:36.511Z,100.00
2018-12-11T21:55:06.634Z,100.00
2018-12-11T21:57:35.349Z,100.00
2018-12-11T22:00:05.857Z,100.00
2018-12-11T22:02:34.176Z,100.00
2018-12-11T22:05:02.447Z,100.00
2018-12-11T22:07:30.755Z,100.00
2018-12-11T22:09:59.008Z,100.00
2018-12-11T22:12:27.729Z,100.00
2018-12-11T22:14:56.008Z,100.00
2018-12-11T22:17:24.269Z,100.00
2018-12-11T22:19:52.513Z,100.00
2018-12-11T22:22:20.788Z,100.00
2018-12-11T22:24:49.044Z,100.00
2018-12-11T22:27:17.292Z,100.00
2018-12-11T22:29:45.549Z,100.00
2018-12-11T22:32:13.812Z,100.00
2018-12-11T22:34:42.052Z,100.00
2018-12-11T22:37:10.296Z,100.00
2018-12-11T22:39:38.586Z,100.00
2018-12-11T22:42:06.843Z,100.00
2018-12-11T22:44:35.096Z,100.00
2018-12-11T22:47:03.343Z,100.00
2018-12-11T22:49:31.588Z,100.00
2018-12-11T22:51:59.916Z,100.00
2018-12-11T22:54:28.532Z,100.00
2018-12-11T22:56:56.786Z,100.00
2018-12-11T22:59:25.039Z,100.00
2018-12-11T23:01:53.305Z,100.00
2018-12-11T23:04:21.572Z,100.00
2018-12-11T23:06:49.831Z,100.00
2018-12-11T23:09:18.092Z,100.00
2018-12-11T23:11:46.462Z,100.00
2018-12-11T23:14:14.719Z,100.00
2018-12-11T23:16:42.976Z,100.00
2018-12-11T23:19:11.301Z,100.00
2018-12-11T23:21:39.618Z,100.00
2018-12-11T23:24:07.913Z,100.00
2018-12-11T23:26:36.197Z,100.00
2018-12-11T23:29:04.548Z,100.00
2018-12-11T23:31:32.895Z,100.00
2018-12-11T23:34:01.203Z,100.00
2018-12-11T23:36:29.539Z,100.00
2018-12-11T23:38:57.852Z,100.00
2018-12-11T23:41:26.182Z,100.00
2018-12-11T23:43:54.599Z,100.00
2018-12-11T23:46:22.941Z,100.00
2018-12-11T23:48:51.261Z,100.00
2018-12-11T23:51:19.536Z,100.00
2018-12-11T23:53:47.790Z,100.00
2018-12-11T23:56:16.037Z,100.00
2018-12-11T23:58:45.005Z,100.00
